.
WxDataArchive / Data Records for 2013-01-23
2013-01-22 January 2013 2013-01-24

Data Records for Wednesday, 23 January 2013

Time	Temp	Chill	HIndex	Humid	Dewpt	 Wind 	HiWind	WindDir	Rain 	Barom 
-----	----	-----	------	-----	-----	------	------	-------	-----	----- 
00:00	9.3	9.3	9.3	50	-5.5	1	3	248	0.00	30.368 
00:05	9.3	9.3	9.3	50	-5.5	1	3	248	0.00	30.368 
00:10	9.3	9.3	9.3	51	-5.1	1	5	248	0.00	30.368 
00:15	9.3	9.3	9.3	51	-5.1	1	3	248	0.00	30.363 
00:20	9.3	9.3	9.3	51	-5.1	0	2	248	0.00	30.363 
00:25	9.3	9.3	9.3	51	-5.1	1	4	248	0.00	30.363 
00:30	9.2	9.2	9.2	51	-5.2	0	3	248	0.00	30.364 
00:35	9.2	9.2	9.2	51	-5.2	1	3	248	0.00	30.364 
00:40	9.0	9.0	9.0	52	-5.0	1	3	248	0.00	30.364 
00:45	9.0	9.0	9.0	52	-5.0	1	6	248	0.00	30.361 
00:50	8.8	8.8	8.8	52	-5.2	0	2	248	0.00	30.361 
00:55	8.8	8.8	8.8	52	-5.2	1	4	248	0.00	30.361 
01:00	8.6	8.6	8.6	53	-5.0	0	2	248	0.00	30.362 
01:05	8.6	8.6	8.6	53	-5.0	1	4	248	0.00	30.362 
01:10	8.6	8.6	8.6	53	-5.0	0	2	248	0.00	30.362 
01:15	8.4	8.4	8.4	54	-4.8	1	3	248	0.00	30.361 
01:20	8.4	8.4	8.4	54	-4.8	0	3	248	0.00	30.361 
01:25	8.4	8.4	8.4	54	-4.8	1	3	248	0.00	30.361 
01:30	8.3	8.3	8.3	54	-4.9	1	4	248	0.00	30.361 
01:35	8.3	8.3	8.3	54	-4.9	0	2	248	0.00	30.361 
01:40	8.3	8.3	8.3	54	-4.9	1	4	248	0.00	30.361 
01:45	8.3	8.3	8.3	54	-4.9	1	3	248	0.00	30.358 
01:50	8.3	8.3	8.3	55	-4.5	1	4	248	0.00	30.358 
01:55	8.3	8.3	8.3	55	-4.5	0	2	248	0.00	30.358 
02:00	8.1	8.1	8.1	55	-4.7	1	3	248	0.00	30.356 
02:05	8.1	8.1	8.1	55	-4.7	1	4	248	0.00	30.356 
02:10	8.1	8.1	8.1	55	-4.7	1	3	248	0.00	30.356 
02:15	8.1	8.1	8.1	55	-4.7	1	4	248	0.00	30.353 
02:20	8.1	8.1	8.1	56	-4.3	1	2	248	0.00	30.353 
02:25	8.1	8.1	8.1	56	-4.3	0	3	248	0.00	30.353 
02:30	8.1	8.1	8.1	56	-4.3	0	2	248	0.00	30.353 
02:35	8.1	8.1	8.1	56	-4.3	1	3	248	0.00	30.353 
02:40	8.3	8.3	8.3	56	-4.1	1	2	248	0.00	30.353 
02:45	8.3	8.3	8.3	56	-4.1	1	2	248	0.00	30.352 
02:50	8.3	8.3	8.3	56	-4.1	0	3	248	0.00	30.352 
02:55	8.3	8.3	8.3	56	-4.1	1	3	248	0.00	30.352 
03:00	8.3	8.3	8.3	57	-3.8	1	3	248	0.00	30.352 
03:05	8.3	8.3	8.3	57	-3.8	0	1	248	0.00	30.352 
03:10	8.3	8.3	8.3	57	-3.8	1	3	248	0.00	30.352 
03:15	8.3	8.3	8.3	57	-3.8	0	2	248	0.00	30.350 
03:20	8.1	8.1	8.1	57	-3.9	1	3	248	0.00	30.350 
03:25	8.1	8.1	8.1	57	-3.9	0	2	248	0.00	30.350 
03:30	8.1	8.1	8.1	58	-3.6	1	2	248	0.00	30.348 
03:35	8.1	8.1	8.1	58	-3.6	0	2	248	0.00	30.348 
03:40	8.1	8.1	8.1	58	-3.6	0	3	248	0.00	30.348 
03:45	8.1	8.1	8.1	58	-3.6	0	2	248	0.00	30.348 
03:50	8.1	8.1	8.1	58	-3.6	0	2	248	0.00	30.348 
03:55	8.1	8.1	8.1	58	-3.6	0	4	248	0.00	30.348 
04:00	8.1	8.1	8.1	59	-3.2	0	3	248	0.00	30.349 
04:05	8.1	8.1	8.1	59	-3.2	0	2	248	0.00	30.349 
04:10	8.1	8.1	8.1	59	-3.2	0	2	248	0.00	30.349 
04:15	8.1	8.1	8.1	59	-3.2	0	2	248	0.00	30.349 
04:20	8.1	8.1	8.1	60	-2.9	0	1	248	0.00	30.349 
04:25	7.9	7.9	7.9	60	-3.1	0	2	248	0.00	30.349 
04:30	7.9	7.9	7.9	60	-3.1	0	3	248	0.00	30.348 
04:35	7.9	7.9	7.9	61	-2.7	0	2	248	0.00	30.348 
04:40	8.1	8.1	8.1	61	-2.5	0	1	248	0.00	30.348 
04:45	8.1	8.1	8.1	61	-2.5	0	2	248	0.00	30.345 
04:50	8.1	8.1	8.1	61	-2.5	0	3	248	0.00	30.345 
04:55	8.1	8.1	8.1	61	-2.5	0	2	248	0.00	30.345 
05:00	8.3	8.3	8.3	62	-2.0	0	2	248	0.00	30.338 
05:05	8.4	8.4	8.4	62	-1.9	1	4	248	0.00	30.338 
05:10	8.6	8.6	8.6	62	-1.7	1	4	248	0.00	30.338 
05:15	8.6	8.6	8.6	62	-1.7	0	2	248	0.00	30.335 
05:20	8.8	8.8	8.8	61	-1.9	1	4	248	0.00	30.335 
05:25	9.0	9.0	9.0	61	-1.7	1	3	248	0.00	30.335 
05:30	9.2	9.2	9.2	61	-1.5	1	4	248	0.00	30.336 
05:35	9.3	9.3	9.3	61	-1.4	1	3	248	0.00	30.336 
05:40	9.5	9.5	9.5	61	-1.2	1	4	248	0.00	30.336 
05:45	9.5	9.5	9.5	60	-1.5	1	4	248	0.00	30.337 
05:50	9.7	9.7	9.7	60	-1.4	0	3	248	0.00	30.337 
05:55	9.9	9.9	9.9	60	-1.2	0	2	248	0.00	30.337 
06:00	9.9	9.9	9.9	60	-1.2	0	3	248	0.00	30.336 
06:05	10.0	10.0	10.0	59	-1.4	1	3	248	0.00	30.336 
06:10	10.0	10.0	10.0	59	-1.4	1	4	248	0.00	30.336 
06:15	10.2	10.2	10.2	58	-1.6	1	3	248	0.00	30.337 
06:20	10.2	10.2	10.2	58	-1.6	1	4	248	0.00	30.337 
06:25	10.2	10.2	10.2	58	-1.6	1	4	248	0.00	30.337 
06:30	10.4	10.4	10.4	58	-1.4	0	2	248	0.00	30.338 
06:35	10.4	10.4	10.4	58	-1.4	1	3	248	0.00	30.338 
06:40	10.4	10.4	10.4	57	-1.8	1	5	248	0.00	30.338 
06:45	10.5	10.5	10.5	57	-1.7	1	3	248	0.00	30.337 
06:50	10.5	10.5	10.5	56	-2.1	1	3	248	0.00	30.337 
06:55	10.5	10.5	10.5	56	-2.1	1	4	248	0.00	30.337 
07:00	10.7	10.7	10.7	56	-1.9	1	4	248	0.00	30.334 
07:05	10.7	10.7	10.7	56	-1.9	1	4	248	0.00	30.334 
07:10	10.7	10.7	10.7	56	-1.9	1	2	248	0.00	30.334 
07:15	10.7	10.7	10.7	55	-2.2	1	6	248	0.00	30.336 
07:20	10.9	10.9	10.9	55	-2.1	1	4	248	0.00	30.336 
07:25	10.9	10.9	10.9	55	-2.1	2	5	248	0.00	30.336 
07:30	10.9	10.9	10.9	55	-2.1	1	5	248	0.00	30.340 
07:35	11.1	11.1	11.1	55	-1.9	1	4	248	0.00	30.340 
07:40	11.1	11.1	11.1	55	-1.9	1	6	248	0.00	30.340 
07:45	11.1	11.1	11.1	55	-1.9	1	4	270	0.00	30.336 
07:50	11.1	11.1	11.1	55	-1.9	0	2	248	0.00	30.336 
07:55	11.2	11.2	11.2	55	-1.8	0	2	248	0.00	30.336 
08:00	11.2	11.2	11.2	55	-1.8	0	2	248	0.00	30.333 
08:05	11.2	11.2	11.2	55	-1.8	0	1	248	0.00	30.333 
08:10	11.2	11.2	11.2	56	-1.4	0	2	248	0.00	30.333 
08:15	11.4	11.4	11.4	56	-1.2	0	1	248	0.00	30.331 
08:20	11.4	11.4	11.4	55	-1.6	1	4	248	0.00	30.331 
08:25	11.4	11.4	11.4	55	-1.6	0	2	248	0.00	30.331 
08:30	11.6	11.6	11.6	55	-1.4	0	1	248	0.00	30.332 
08:35	11.6	11.6	11.6	55	-1.4	0	2	248	0.00	30.332 
08:40	11.7	11.7	11.7	55	-1.3	1	3	248	0.00	30.332 
08:45	11.7	11.7	11.7	54	-1.7	0	2	248	0.00	30.331 
08:50	11.9	11.9	11.9	54	-1.5	0	2	248	0.00	30.331 
08:55	12.1	12.1	12.1	55	-0.9	0	2	248	0.00	30.331 
09:00	12.3	12.3	12.3	54	-1.1	1	5	248	0.00	30.326 
09:05	12.4	12.4	12.4	53	-1.4	1	3	248	0.00	30.326 
09:10	12.4	12.4	12.4	53	-1.4	1	3	248	0.00	30.326 
09:15	12.4	12.4	12.4	53	-1.4	0	2	248	0.00	30.316 
09:20	12.6	12.6	12.6	53	-1.2	0	3	248	0.00	30.316 
09:25	12.6	12.6	12.6	53	-1.2	1	3	248	0.00	30.316 
09:30	12.6	12.6	12.6	53	-1.2	0	2	248	0.00	30.305 
09:35	12.8	12.8	12.8	52	-1.5	1	3	248	0.00	30.305 
09:40	13.1	13.1	13.1	52	-1.2	1	4	248	0.00	30.305 
09:45	13.5	13.5	13.5	51	-1.2	1	4	248	0.00	30.317 
09:50	13.6	13.6	13.6	50	-1.5	1	3	248	0.00	30.317 
09:55	13.8	13.8	13.8	50	-1.4	1	4	248	0.00	30.317 
10:00	13.8	13.8	13.8	48	-2.2	2	4	248	0.00	30.323 
10:05	13.8	13.8	13.8	48	-2.2	2	5	248	0.00	30.323 
10:10	13.8	13.8	13.8	47	-2.7	2	5	248	0.00	30.323 
10:15	14.0	14.0	14.0	47	-2.5	0	2	248	0.00	30.313 
10:20	14.1	14.1	14.1	48	-1.9	1	5	248	0.00	30.313 
10:25	14.3	14.3	14.3	47	-2.2	1	3	248	0.00	30.313 
10:30	14.4	14.4	14.4	46	-2.6	1	5	248	0.00	30.308 
10:35	14.4	14.4	14.4	46	-2.6	1	4	248	0.00	30.308 
10:40	14.4	14.4	14.4	45	-3.0	2	5	248	0.00	30.308 
10:45	14.6	14.6	14.6	45	-2.8	1	5	270	0.00	30.315 
10:50	14.6	14.6	14.6	45	-2.8	2	6	248	0.00	30.315 
10:55	14.8	14.8	14.8	46	-2.2	1	5	248	0.00	30.315 
11:00	14.9	14.9	14.9	45	-2.6	1	5	248	0.00	30.314 
11:05	14.9	14.9	14.9	45	-2.6	2	5	248	0.00	30.314 
11:10	15.1	15.1	15.1	44	-2.8	1	3	248	0.00	30.314 
11:15	15.2	15.2	15.2	44	-2.8	2	5	248	0.00	30.300 
11:20	15.4	15.4	15.4	43	-3.1	1	5	248	0.00	30.300 
11:25	15.6	15.6	15.6	43	-2.9	1	4	248	0.00	30.300 
11:30	15.6	15.6	15.6	43	-2.9	1	5	248	0.00	30.300 
11:35	15.6	15.6	15.6	43	-2.9	1	6	248	0.00	30.300 
11:40	15.7	15.7	15.7	44	-2.3	1	4	248	0.00	30.300 
11:45	15.7	15.7	15.7	44	-2.3	2	6	248	0.00	30.299 
11:50	15.7	15.7	15.7	43	-2.8	2	5	248	0.00	30.299 
11:55	15.9	15.9	15.9	44	-2.1	1	3	248	0.00	30.299 
12:00	16.1	16.1	16.1	44	-1.9	1	3	248	0.00	30.290 
12:05	16.1	16.1	16.1	43	-2.4	2	5	248	0.00	30.290 
12:10	16.2	16.2	16.2	44	-1.8	2	6	248	0.00	30.290 
12:15	16.2	16.2	16.2	44	-1.8	2	5	248	0.00	30.284 
12:20	16.2	16.2	16.2	44	-1.8	1	4	225	0.00	30.284 
12:25	16.2	16.2	16.2	43	-2.3	2	5	248	0.00	30.284 
12:30	16.4	16.4	16.4	43	-2.1	1	5	248	0.00	30.274 
12:35	16.4	16.4	16.4	43	-2.1	1	4	248	0.00	30.274 
12:40	16.5	16.5	16.5	43	-2.0	1	4	225	0.00	30.274 
12:45	16.5	16.5	16.5	43	-2.0	1	4	248	0.00	30.264 
12:50	16.5	16.5	16.5	42	-2.5	1	5	248	0.00	30.264 
12:55	16.5	16.5	16.5	42	-2.5	2	5	248	0.00	30.264 
13:00	16.7	16.7	16.7	42	-2.4	1	7	248	0.00	30.252 
13:05	16.9	16.9	16.9	43	-1.7	1	6	270	0.00	30.252 
13:10	17.0	17.0	17.0	42	-2.1	2	6	248	0.00	30.252 
13:15	17.0	17.0	17.0	42	-2.1	2	6	248	0.00	30.247 
13:20	17.0	17.0	17.0	43	-1.6	2	6	248	0.00	30.247 
13:25	16.9	16.9	16.9	43	-1.7	2	7	248	0.00	30.247 
13:30	17.0	17.0	17.0	43	-1.6	2	5	248	0.00	30.235 
13:35	17.2	17.2	17.2	44	-0.9	0	2	248	0.00	30.235 
13:40	17.3	17.3	17.3	44	-0.8	1	3	248	0.00	30.235 
13:45	17.5	17.5	17.5	45	-0.2	1	3	248	0.00	30.219 
13:50	17.8	17.8	17.8	45	0.1	1	4	248	0.00	30.219 
13:55	17.8	17.8	17.8	45	0.1	1	6	248	0.00	30.219 
14:00	17.7	17.7	17.7	45	0.0	2	6	248	0.00	30.216 
14:05	17.7	17.7	17.7	46	0.5	1	6	248	0.00	30.216 
14:10	17.7	17.7	17.7	46	0.5	2	5	248	0.00	30.216 
14:15	17.7	17.7	17.7	46	0.5	1	3	248	0.00	30.206 
14:20	17.8	17.8	17.8	46	0.6	1	4	248	0.00	30.206 
14:25	18.0	18.0	18.0	47	1.2	1	4	248	0.00	30.206 
14:30	18.0	18.0	18.0	47	1.2	1	4	248	0.00	30.201 
14:35	17.8	17.8	17.8	47	1.0	1	3	270	0.00	30.201 
14:40	17.8	17.8	17.8	47	1.0	1	4	248	0.00	30.201 
14:45	18.0	18.0	18.0	46	0.8	1	5	248	0.00	30.195 
14:50	18.0	18.0	18.0	46	0.8	1	5	248	0.00	30.195 
14:55	18.0	18.0	18.0	46	0.8	1	4	248	0.00	30.195 
15:00	18.1	18.1	18.1	45	0.4	2	5	248	0.00	30.191 
15:05	18.1	18.1	18.1	45	0.4	1	3	270	0.00	30.191 
15:10	18.3	18.3	18.3	45	0.6	1	4	270	0.00	30.191 
15:15	18.3	18.3	18.3	45	0.6	2	6	248	0.00	30.188 
15:20	18.3	18.3	18.3	46	1.0	2	6	248	0.00	30.188 
15:25	18.4	18.4	18.4	46	1.1	1	4	248	0.00	30.188 
15:30	18.3	18.3	18.3	46	1.0	2	5	248	0.00	30.186 
15:35	18.3	18.3	18.3	46	1.0	1	5	248	0.00	30.186 
15:40	18.3	18.3	18.3	47	1.5	1	4	248	0.00	30.186 
15:45	18.3	18.3	18.3	47	1.5	2	5	248	0.00	30.177 
15:50	18.3	18.3	18.3	47	1.5	1	4	225	0.00	30.177 
15:55	18.3	18.3	18.3	48	1.9	1	4	248	0.00	30.177 
16:00	18.4	18.4	18.4	49	2.5	1	5	248	0.00	30.175 
16:05	18.4	18.4	18.4	49	2.5	1	4	248	0.00	30.175 
16:10	18.3	18.3	18.3	49	2.4	2	6	248	0.00	30.175 
16:15	18.3	18.3	18.3	50	2.8	1	5	248	0.00	30.172 
16:20	18.3	18.3	18.3	51	3.2	1	6	248	0.00	30.172 
16:25	18.3	18.3	18.3	51	3.2	1	4	225	0.00	30.172 
16:30	18.3	18.3	18.3	52	3.7	1	3	225	0.00	30.169 
16:35	18.3	18.3	18.3	53	4.1	1	3	248	0.00	30.169 
16:40	18.1	18.1	18.1	54	4.3	1	3	248	0.00	30.169 
16:45	18.1	18.1	18.1	56	5.1	2	6	248	0.00	30.162 
16:50	18.0	18.0	18.0	57	5.4	1	4	248	0.00	30.162 
16:55	17.8	17.8	17.8	58	5.6	1	2	248	0.00	30.162 
17:00	17.8	17.8	17.8	59	5.9	1	6	248	0.00	30.162 
17:05	17.8	17.8	17.8	60	6.3	1	3	248	0.00	30.162 
17:10	17.8	17.8	17.8	60	6.3	1	3	248	0.00	30.162 
17:15	17.8	17.8	17.8	61	6.7	1	3	248	0.00	30.161 
17:20	17.7	17.7	17.7	62	6.9	1	4	225	0.00	30.161 
17:25	17.7	17.7	17.7	63	7.3	1	2	225	0.00	30.161 
17:30	17.5	17.5	17.5	64	7.4	1	4	225	0.00	30.168 
17:35	17.5	17.5	17.5	65	7.8	1	4	248	0.00	30.168 
17:40	17.3	17.3	17.3	66	7.9	1	4	248	0.00	30.168 
17:45	17.3	17.3	17.3	66	7.9	0	3	248	0.00	30.162 
17:50	17.3	17.3	17.3	67	8.3	0	3	248	0.00	30.162 
17:55	17.3	17.3	17.3	68	8.6	1	3	248	0.00	30.162 
18:00	17.2	17.2	17.2	69	8.8	1	3	248	0.00	30.154 
18:05	17.2	17.2	17.2	69	8.8	0	1	248	0.00	30.154 
18:10	17.2	17.2	17.2	70	9.1	0	2	248	0.00	30.154 
18:15	17.2	17.2	17.2	70	9.1	0	2	248	0.00	30.154 
18:20	17.0	17.0	17.0	71	9.2	0	2	248	0.00	30.154 
18:25	17.0	17.0	17.0	72	9.6	0	3	248	0.00	30.154 
18:30	17.0	17.0	17.0	72	9.6	0	3	248	0.00	30.154 
18:35	17.0	17.0	17.0	73	9.9	0	2	248	0.00	30.154 
18:40	17.0	17.0	17.0	73	9.9	0	2	248	0.00	30.154 
18:45	17.0	17.0	17.0	73	9.9	0	2	248	0.00	30.152 
18:50	16.9	16.9	16.9	74	10.1	0	0	---	0.00	30.152 
18:55	16.9	16.9	16.9	74	10.1	0	1	248	0.00	30.152 
19:00	16.9	16.9	16.9	74	10.1	0	0	---	0.00	30.147 
19:05	16.9	16.9	16.9	75	10.4	0	1	248	0.00	30.147 
19:10	16.9	16.9	16.9	75	10.4	0	1	248	0.00	30.147 
19:15	16.9	16.9	16.9	75	10.4	0	1	248	0.00	30.138 
19:20	16.9	16.9	16.9	76	10.7	0	0	---	0.00	30.138 
19:25	16.9	16.9	16.9	76	10.7	0	1	248	0.00	30.138 
19:30	16.9	16.9	16.9	76	10.7	0	2	248	0.00	30.136 
19:35	17.0	17.0	17.0	76	10.8	0	1	248	0.00	30.136 
19:40	17.0	17.0	17.0	75	10.5	0	2	248	0.00	30.136 
19:45	17.2	17.2	17.2	75	10.7	0	2	248	0.00	30.134 
19:50	17.2	17.2	17.2	75	10.7	0	2	248	0.00	30.134 
19:55	17.3	17.3	17.3	75	10.8	0	3	248	0.00	30.134 
20:00	17.3	17.3	17.3	74	10.5	0	3	248	0.00	30.128 
20:05	17.3	17.3	17.3	74	10.5	0	4	248	0.00	30.128 
20:10	17.5	17.5	17.5	74	10.7	0	3	248	0.00	30.128 
20:15	17.5	17.5	17.5	73	10.3	1	4	248	0.00	30.122 
20:20	17.5	17.5	17.5	73	10.3	1	3	248	0.00	30.122 
20:25	17.5	17.5	17.5	73	10.3	1	4	248	0.00	30.122 
20:30	17.5	17.5	17.5	73	10.3	1	4	248	0.00	30.123 
20:35	17.5	17.5	17.5	73	10.3	1	3	248	0.00	30.123 
20:40	17.5	17.5	17.5	73	10.3	1	3	248	0.00	30.123 
20:45	17.5	17.5	17.5	74	10.7	1	3	248	0.00	30.121 
20:50	17.5	17.5	17.5	74	10.7	0	2	248	0.00	30.121 
20:55	17.5	17.5	17.5	74	10.7	1	4	248	0.00	30.121 
21:00	17.5	17.5	17.5	74	10.7	1	4	248	0.00	30.124 
21:05	17.5	17.5	17.5	75	11.0	0	2	248	0.00	30.124 
21:10	17.5	17.5	17.5	75	11.0	1	3	248	0.00	30.124 
21:15	17.5	17.5	17.5	75	11.0	1	3	248	0.00	30.118 
21:20	17.5	17.5	17.5	76	11.3	1	4	248	0.00	30.118 
21:25	17.5	17.5	17.5	76	11.3	1	3	248	0.00	30.118 
21:30	17.5	17.5	17.5	77	11.5	1	3	248	0.00	30.125 
21:35	17.5	17.5	17.5	77	11.5	1	4	248	0.00	30.125 
21:40	17.5	17.5	17.5	77	11.5	1	3	248	0.00	30.125 
21:45	17.7	17.7	17.7	77	11.7	1	4	248	0.00	30.125 
21:50	17.7	17.7	17.7	78	12.0	1	4	248	0.00	30.125 
21:55	17.7	17.7	17.7	78	12.0	1	4	248	0.00	30.125 
22:00	17.7	17.7	17.7	78	12.0	1	3	248	0.00	30.121 
22:05	17.7	17.7	17.7	78	12.0	1	4	248	0.00	30.121 
22:10	17.7	17.7	17.7	78	12.0	1	5	248	0.00	30.121 
22:15	17.7	17.7	17.7	78	12.0	2	4	248	0.00	30.118 
22:20	17.7	17.7	17.7	78	12.0	1	5	248	0.00	30.118 
22:25	17.7	17.7	17.7	78	12.0	1	3	248	0.00	30.118 
22:30	17.8	17.8	17.8	78	12.1	1	4	248	0.00	30.118 
22:35	17.8	17.8	17.8	78	12.1	2	4	248	0.00	30.118 
22:40	17.8	17.8	17.8	78	12.1	2	3	248	0.00	30.118 
22:45	17.7	17.7	17.7	78	12.0	2	5	248	0.00	30.119 
22:50	17.5	17.5	17.5	79	12.1	1	3	248	0.00	30.119 
22:55	17.5	17.5	17.5	79	12.1	1	3	270	0.00	30.119 
23:00	17.3	17.3	17.3	79	11.9	1	4	270	0.00	30.122 
23:05	17.3	17.3	17.3	79	11.9	1	4	270	0.00	30.122 
23:10	17.5	17.5	17.5	79	12.1	1	4	248	0.00	30.122 
23:15	17.5	17.5	17.5	79	12.1	2	4	270	0.00	30.129 
23:20	17.5	17.5	17.5	79	12.1	2	4	270	0.00	30.129 
23:25	17.5	17.5	17.5	79	12.1	1	4	270	0.00	30.129 
23:30	17.7	17.7	17.7	79	12.3	2	6	292	0.00	30.131 
23:35	17.8	17.8	17.8	79	12.4	1	4	270	0.00	30.131 
23:40	17.8	17.8	17.8	79	12.4	2	5	270	0.00	30.131 
23:45	17.8	17.8	17.8	79	12.4	2	5	270	0.00	30.139 
23:50	17.8	17.8	17.8	80	12.7	1	3	292	0.00	30.139 
23:55	17.8	17.8	17.8	80	12.7	1	3	315	0.00	30.139 

CoCoRaHS
IN-AL-39
A2 Web Hosting
Creative Commons License
GoDaddy
search engine by freefind advanced

loaded 2018-11-13 01:30:57 • last modified 2010-11-18 10:43:29
Privacy PolicyDisclaimer
• wx.awcolley.com is powered by PmWiki v.2002016 •
• all content (unless otherwise noted) © 2018 A W Colley